createdAt,value
2023-01-19T00:00:32.077Z,96169.88
2023-01-19T00:02:58.780Z,96177.06
2023-01-19T00:05:25.435Z,96162.72
2023-01-19T00:07:52.031Z,96132.47
2023-01-19T00:10:18.731Z,96172.84
2023-01-19T00:12:45.283Z,96172.47
2023-01-19T00:15:12.088Z,96179.91
2023-01-19T00:17:41.097Z,96182.16
2023-01-19T00:20:09.543Z,96184.94
2023-01-19T00:22:36.167Z,96145.66
2023-01-19T00:25:03.559Z,96187.38
2023-01-19T00:27:34.870Z,96187.56
2023-01-19T00:30:02.109Z,96188.25
2023-01-19T00:32:28.896Z,96165.19
2023-01-19T00:34:55.473Z,96192.94
2023-01-19T00:37:22.117Z,96192.22
2023-01-19T00:39:48.804Z,96202.47
2023-01-19T00:42:34.164Z,96104.84
2023-01-19T00:45:00.701Z,96214.88
2023-01-19T00:47:27.363Z,96128.59
2023-01-19T00:49:53.953Z,96199.81
2023-01-19T00:52:20.608Z,96203.38
2023-01-19T00:54:47.197Z,96203.84
2023-01-19T00:57:15.752Z,96162.34
2023-01-19T00:59:42.577Z,96141.69
2023-01-19T01:02:09.376Z,96213.78
2023-01-19T01:04:36.064Z,96213.06
2023-01-19T01:07:02.861Z,96202.44
2023-01-19T01:09:29.875Z,96207.34
2023-01-19T01:11:57.325Z,96201.00
2023-01-19T01:14:24.430Z,96127.13
2023-01-19T01:16:51.162Z,96207.31
2023-01-19T01:19:17.839Z,96197.97
2023-01-19T01:21:44.543Z,96197.06
2023-01-19T01:24:11.186Z,96189.63
2023-01-19T01:26:37.785Z,96190.13
2023-01-19T01:29:06.406Z,96090.72
2023-01-19T01:31:33.054Z,96195.41
2023-01-19T01:33:59.608Z,96191.88
2023-01-19T01:36:29.174Z,96189.56
2023-01-19T01:38:55.883Z,96186.97
2023-01-19T01:41:22.480Z,96202.34
2023-01-19T01:43:56.616Z,96204.59
2023-01-19T01:46:23.209Z,96134.69
2023-01-19T01:48:57.739Z,96190.13
2023-01-19T01:51:47.674Z,96217.94
2023-01-19T01:54:28.231Z,96209.13
2023-01-19T01:56:59.663Z,96221.25
2023-01-19T01:59:39.143Z,96209.81
2023-01-19T02:02:40.056Z,96123.91
2023-01-19T02:05:10.817Z,96137.19
2023-01-19T02:08:17.184Z,96219.94
2023-01-19T02:11:03.252Z,96228.59
2023-01-19T02:13:31.257Z,96169.78
2023-01-19T02:16:01.390Z,96210.84
2023-01-19T02:18:30.107Z,96181.50
2023-01-19T02:21:20.211Z,96222.97
2023-01-19T02:23:57.045Z,96222.91
2023-01-19T02:26:27.271Z,96196.31
2023-01-19T02:28:59.011Z,96212.38
2023-01-19T02:31:26.881Z,96214.28
2023-01-19T02:33:54.263Z,96236.09
2023-01-19T02:36:26.014Z,96222.03
2023-01-19T02:38:56.265Z,96151.22
2023-01-19T02:41:30.756Z,96205.47
2023-01-19T02:43:58.892Z,96223.19
2023-01-19T02:46:26.171Z,96213.09
2023-01-19T02:48:52.733Z,95930.47
2023-01-19T02:51:24.298Z,96224.22
2023-01-19T02:54:09.083Z,96226.19
2023-01-19T02:56:45.632Z,96227.91
2023-01-19T02:59:31.491Z,96231.50
2023-01-19T03:02:44.679Z,96236.09
2023-01-19T03:05:30.132Z,96240.78
2023-01-19T03:08:17.581Z,96227.31
2023-01-19T03:10:44.074Z,96232.81
2023-01-19T03:13:31.859Z,96233.66
2023-01-19T03:16:15.330Z,96236.97
2023-01-19T03:18:46.444Z,96233.34
2023-01-19T03:21:15.099Z,96236.78
2023-01-19T03:23:45.411Z,96242.94
2023-01-19T03:26:17.709Z,96149.94
2023-01-19T03:28:47.510Z,96237.41
2023-01-19T03:31:19.305Z,96155.47
2023-01-19T03:33:51.639Z,96256.31
2023-01-19T03:36:36.660Z,96249.66
2023-01-19T03:39:05.766Z,96261.25
2023-01-19T03:41:34.871Z,96251.63
2023-01-19T03:44:02.721Z,96164.16
2023-01-19T03:46:30.952Z,96176.75
2023-01-19T03:48:59.372Z,96256.25
2023-01-19T03:51:26.456Z,96172.97
2023-01-19T03:53:53.061Z,96253.28
2023-01-19T03:56:25.276Z,96210.88
2023-01-19T03:58:52.348Z,96250.41
2023-01-19T04:01:23.025Z,96219.78
2023-01-19T04:03:50.705Z,96273.50
2023-01-19T04:06:17.437Z,96265.16
2023-01-19T04:08:44.101Z,96270.59
2023-01-19T04:11:10.736Z,96248.53
2023-01-19T04:13:37.355Z,96271.38
2023-01-19T04:16:05.130Z,96179.00
2023-01-19T04:18:33.905Z,96195.78
2023-01-19T04:21:06.440Z,96257.19
2023-01-19T04:23:33.958Z,96178.59
2023-01-19T04:26:03.932Z,96259.09
2023-01-19T04:28:31.282Z,96264.13
2023-01-19T04:30:58.130Z,96256.63
2023-01-19T04:33:25.479Z,96259.66
2023-01-19T04:35:54.457Z,96264.28
2023-01-19T04:38:21.434Z,96258.19
2023-01-19T04:40:49.953Z,96254.59
2023-01-19T04:43:16.952Z,96271.66
2023-01-19T04:45:44.828Z,95893.50
2023-01-19T04:48:12.406Z,96256.31
2023-01-19T04:50:39.116Z,96274.03
2023-01-19T04:53:05.895Z,96259.22
2023-01-19T04:55:32.491Z,96223.47
2023-01-19T04:57:59.451Z,96279.25
2023-01-19T05:00:26.861Z,96295.84
2023-01-19T05:02:53.956Z,96273.84
2023-01-19T05:05:20.671Z,96275.56
2023-01-19T05:07:47.284Z,96269.78
2023-01-19T05:10:13.924Z,96271.78
2023-01-19T05:12:42.094Z,96255.50
2023-01-19T05:15:09.719Z,96268.94
2023-01-19T05:17:36.638Z,96278.00
2023-01-19T05:20:04.422Z,96266.50
2023-01-19T05:22:31.253Z,96284.22
2023-01-19T05:24:58.082Z,96275.34
2023-01-19T05:27:24.671Z,96224.38
2023-01-19T05:29:51.275Z,96294.78
2023-01-19T05:32:17.831Z,96263.59
2023-01-19T05:34:44.457Z,96291.56
2023-01-19T05:37:11.624Z,96295.56
2023-01-19T05:39:38.195Z,96294.06
2023-01-19T05:42:04.980Z,96270.22
2023-01-19T05:44:31.582Z,96255.81
2023-01-19T05:46:58.389Z,96305.16
2023-01-19T05:49:25.105Z,96284.94
2023-01-19T05:51:51.660Z,96314.44
2023-01-19T05:54:18.797Z,96293.28
2023-01-19T05:56:45.711Z,96315.06
2023-01-19T05:59:13.295Z,96314.34
2023-01-19T06:01:40.452Z,96320.72
2023-01-19T06:04:07.268Z,96323.19
2023-01-19T06:06:33.927Z,96263.53
2023-01-19T06:09:00.556Z,96313.19
2023-01-19T06:11:27.195Z,96317.19
2023-01-19T06:13:54.073Z,96313.44
2023-01-19T06:16:20.692Z,96331.38
2023-01-19T06:18:47.353Z,96310.09
2023-01-19T06:21:14.426Z,96324.28
2023-01-19T06:23:41.366Z,96323.66
2023-01-19T06:26:08.056Z,96319.91
2023-01-19T06:28:34.657Z,96330.19
2023-01-19T06:31:01.923Z,96207.56
2023-01-19T06:33:28.761Z,96340.22
2023-01-19T06:35:55.846Z,96339.19
2023-01-19T06:38:22.987Z,96331.69
2023-01-19T06:40:54.818Z,96328.75
2023-01-19T06:43:21.864Z,96335.34
2023-01-19T06:45:48.889Z,96334.94
2023-01-19T06:48:16.121Z,96341.44
2023-01-19T06:50:45.726Z,96316.97
2023-01-19T06:53:12.539Z,96338.69
2023-01-19T06:55:39.323Z,96294.38
2023-01-19T06:58:06.571Z,96295.69
2023-01-19T07:00:33.217Z,96339.16
2023-01-19T07:03:00.167Z,96311.34
2023-01-19T07:05:27.072Z,96348.13
2023-01-19T07:07:55.202Z,96356.09
2023-01-19T07:10:23.140Z,96300.19
2023-01-19T07:12:49.932Z,96358.13
2023-01-19T07:15:19.717Z,96326.19
2023-01-19T07:17:46.381Z,96339.13
2023-01-19T07:20:14.537Z,96368.00
2023-01-19T07:22:43.546Z,96357.19
2023-01-19T07:25:10.442Z,96365.56
2023-01-19T07:27:37.102Z,96367.78
2023-01-19T07:30:04.668Z,96339.19
2023-01-19T07:32:31.287Z,96373.28
2023-01-19T07:34:57.852Z,96303.03
2023-01-19T07:37:25.598Z,96363.00
2023-01-19T07:39:52.306Z,96357.06
2023-01-19T07:42:19.071Z,96376.22
2023-01-19T07:44:45.682Z,96356.66
2023-01-19T07:47:12.846Z,96276.41
2023-01-19T07:49:39.847Z,96353.03
2023-01-19T07:52:06.454Z,96286.47
2023-01-19T07:54:33.723Z,96359.06
2023-01-19T07:57:03.232Z,96276.97
2023-01-19T07:59:31.539Z,96341.69
2023-01-19T08:01:59.769Z,96355.19
2023-01-19T08:04:28.002Z,96359.28
2023-01-19T08:06:56.034Z,96351.84
2023-01-19T08:09:24.440Z,96297.19
2023-01-19T08:11:51.031Z,96294.00
2023-01-19T08:14:17.851Z,96348.78
2023-01-19T08:16:44.662Z,96311.13
2023-01-19T08:19:11.310Z,96323.94
2023-01-19T08:21:39.035Z,96300.56
2023-01-19T08:24:06.118Z,96347.41
2023-01-19T08:26:35.176Z,96002.41
2023-01-19T08:29:04.988Z,96330.22
2023-01-19T08:31:31.885Z,96279.03
2023-01-19T08:33:58.812Z,96302.75
2023-01-19T08:36:25.596Z,96343.41
2023-01-19T08:38:52.390Z,96327.56
2023-01-19T08:41:19.153Z,96251.19
2023-01-19T08:43:45.778Z,96310.19
2023-01-19T08:46:12.423Z,96280.69
2023-01-19T08:48:40.002Z,96323.91
2023-01-19T08:51:06.741Z,96281.16
2023-01-19T08:53:33.411Z,96319.66
2023-01-19T08:56:01.297Z,96302.88
2023-01-19T08:58:28.770Z,96298.22
2023-01-19T09:00:55.505Z,96309.28
2023-01-19T09:03:25.459Z,96316.28
2023-01-19T09:05:52.172Z,96306.66
2023-01-19T09:08:19.248Z,96341.31
2023-01-19T09:10:48.915Z,96316.38
2023-01-19T09:13:16.226Z,96312.94
2023-01-19T09:15:43.630Z,96306.41
2023-01-19T09:18:14.165Z,96307.63
2023-01-19T09:20:42.701Z,96256.13
2023-01-19T09:23:14.531Z,96289.63
2023-01-19T09:25:43.959Z,96284.03
2023-01-19T09:28:12.820Z,96256.00
2023-01-19T09:30:41.339Z,96294.03
2023-01-19T09:33:11.217Z,96290.94
2023-01-19T09:35:39.689Z,96302.91
2023-01-19T09:38:10.552Z,96292.09
2023-01-19T09:40:48.279Z,96265.03
2023-01-19T09:43:24.420Z,96253.19
2023-01-19T09:45:59.109Z,96233.34
2023-01-19T09:48:45.851Z,96256.94
2023-01-19T09:51:16.840Z,96269.25
2023-01-19T09:54:08.112Z,96264.66
2023-01-19T09:56:34.971Z,96253.75
2023-01-19T09:59:03.110Z,96255.91
2023-01-19T10:01:55.603Z,96259.78
2023-01-19T10:05:02.512Z,96260.34
2023-01-19T10:07:54.434Z,96251.91
2023-01-19T10:10:24.672Z,96249.38
2023-01-19T10:12:51.819Z,96253.97
2023-01-19T10:15:36.988Z,96246.59
2023-01-19T10:18:16.479Z,96234.88
2023-01-19T10:21:05.697Z,96244.50
2023-01-19T10:23:41.341Z,96252.22
2023-01-19T10:26:22.086Z,96222.06
2023-01-19T10:28:52.916Z,96235.06
2023-01-19T10:31:23.482Z,96222.06
2023-01-19T10:33:51.211Z,96216.13
2023-01-19T10:36:21.302Z,96211.75
2023-01-19T10:38:48.722Z,96213.47
2023-01-19T10:41:19.870Z,96200.69
2023-01-19T10:43:47.798Z,96083.78
2023-01-19T10:46:31.110Z,96204.72
2023-01-19T10:48:57.968Z,96204.00
2023-01-19T10:51:24.837Z,96192.94
2023-01-19T10:54:13.418Z,96202.16
2023-01-19T10:56:40.838Z,96204.72
2023-01-19T10:59:27.849Z,96188.41
2023-01-19T11:02:21.877Z,96189.28
2023-01-19T11:04:52.815Z,96156.03
2023-01-19T11:07:26.569Z,96198.56
2023-01-19T11:10:16.360Z,96197.34
2023-01-19T11:12:52.388Z,96195.53
2023-01-19T11:15:28.331Z,96197.03
2023-01-19T11:17:55.170Z,96192.84
2023-01-19T11:20:29.433Z,96210.25
2023-01-19T11:23:18.433Z,96193.53
2023-01-19T11:25:47.968Z,96198.34
2023-01-19T11:28:35.980Z,96185.25
2023-01-19T11:31:14.894Z,96190.84
2023-01-19T11:33:49.793Z,96179.81
2023-01-19T11:36:27.631Z,96175.09
2023-01-19T11:39:00.032Z,96159.47
2023-01-19T11:41:29.939Z,96121.69
2023-01-19T11:44:19.417Z,96175.00
2023-01-19T11:46:50.238Z,96141.88
2023-01-19T11:49:38.616Z,96163.81
2023-01-19T11:52:08.010Z,96168.78
2023-01-19T11:54:47.598Z,96165.28
2023-01-19T11:57:17.211Z,96163.47
2023-01-19T11:59:44.829Z,96158.19
2023-01-19T12:02:23.217Z,96164.13
2023-01-19T12:04:51.837Z,96149.34
2023-01-19T12:07:25.947Z,96089.91
2023-01-19T12:09:58.955Z,96166.50
2023-01-19T12:12:25.508Z,96173.06
2023-01-19T12:15:04.424Z,96158.53
2023-01-19T12:17:38.129Z,96179.88
2023-01-19T12:20:15.134Z,96179.72
2023-01-19T12:22:50.216Z,96183.22
2023-01-19T12:25:24.932Z,96170.06
2023-01-19T12:27:52.225Z,96181.19
2023-01-19T12:30:22.388Z,95762.31
2023-01-19T12:32:51.246Z,96115.97
2023-01-19T12:36:06.032Z,96174.56
2023-01-19T12:38:44.424Z,96175.94
2023-01-19T12:41:30.162Z,96174.25
2023-01-19T12:44:12.159Z,96170.06
2023-01-19T12:46:55.143Z,96177.59
2023-01-19T12:49:21.895Z,96170.69
2023-01-19T12:51:50.880Z,96178.63
2023-01-19T12:54:31.654Z,95869.59
2023-01-19T12:57:08.466Z,96172.59
2023-01-19T12:59:39.516Z,96181.38
2023-01-19T13:02:18.141Z,96165.97
2023-01-19T13:05:15.934Z,96152.78
2023-01-19T13:08:07.776Z,96166.91
2023-01-19T13:10:56.001Z,96169.19
2023-01-19T13:13:36.799Z,96095.25
2023-01-19T13:16:18.858Z,96157.63
2023-01-19T13:19:15.013Z,96108.78
2023-01-19T13:21:44.762Z,96133.63
2023-01-19T13:24:22.487Z,96172.00
2023-01-19T13:26:49.119Z,96177.03
2023-01-19T13:29:33.933Z,96175.84
2023-01-19T13:32:03.930Z,96185.94
2023-01-19T13:34:40.178Z,96186.81
2023-01-19T13:37:16.095Z,96097.22
2023-01-19T13:39:44.963Z,96137.00
2023-01-19T13:42:17.006Z,96191.56
2023-01-19T13:44:52.420Z,96149.78
2023-01-19T13:47:24.510Z,96179.50
2023-01-19T13:50:01.413Z,96180.31
2023-01-19T13:52:29.448Z,96178.16
2023-01-19T13:55:03.384Z,96177.38
2023-01-19T13:57:31.707Z,96194.19
2023-01-19T14:00:29.351Z,96185.56
2023-01-19T14:03:04.904Z,96193.88
2023-01-19T14:05:40.292Z,96203.06
2023-01-19T14:08:14.936Z,96203.00
2023-01-19T14:10:53.508Z,96195.97
2023-01-19T14:13:34.688Z,96201.69
2023-01-19T14:16:06.643Z,96201.13
2023-01-19T14:18:34.922Z,96139.72
2023-01-19T14:21:08.917Z,96203.84
2023-01-19T14:23:47.767Z,96197.97
2023-01-19T14:26:43.108Z,96209.34
2023-01-19T14:29:18.726Z,96199.22
2023-01-19T14:31:51.844Z,96210.56
2023-01-19T14:34:35.188Z,96187.88
2023-01-19T14:37:04.049Z,96199.03
2023-01-19T14:39:34.337Z,96129.75
2023-01-19T14:42:04.596Z,96188.84
2023-01-19T14:44:37.049Z,96198.53
2023-01-19T14:47:05.368Z,96212.97
2023-01-19T14:49:36.392Z,96201.97
2023-01-19T14:52:06.825Z,96200.38
2023-01-19T14:54:40.659Z,96201.22
2023-01-19T14:57:15.030Z,96176.91
2023-01-19T14:59:46.895Z,96206.31
2023-01-19T15:02:13.678Z,96199.25
2023-01-19T15:04:40.252Z,96198.47
2023-01-19T15:07:11.457Z,96151.25
2023-01-19T15:09:38.069Z,96200.22
2023-01-19T15:12:04.984Z,96198.84
2023-01-19T15:14:31.623Z,96200.22
2023-01-19T15:16:59.069Z,96208.72
2023-01-19T15:19:25.701Z,96202.44
2023-01-19T15:21:52.365Z,96200.84
2023-01-19T15:24:18.949Z,96202.06
2023-01-19T15:26:45.678Z,96212.91
2023-01-19T15:29:26.599Z,96212.69
2023-01-19T15:31:53.356Z,96259.81
2023-01-19T15:34:20.028Z,96199.69
2023-01-19T15:36:46.611Z,96192.56
2023-01-19T15:39:13.202Z,96214.31
2023-01-19T15:41:40.551Z,96221.84
2023-01-19T15:44:10.756Z,96230.59
2023-01-19T15:46:38.047Z,96225.16
2023-01-19T15:49:05.846Z,96224.00
2023-01-19T15:51:32.974Z,96238.03
2023-01-19T15:53:59.829Z,96233.31
2023-01-19T15:56:29.533Z,96236.63
2023-01-19T15:58:58.119Z,96224.91
2023-01-19T16:01:33.977Z,96245.13
2023-01-19T16:04:03.736Z,96247.94
2023-01-19T16:06:31.507Z,96255.09
2023-01-19T16:09:02.660Z,96246.38
2023-01-19T16:11:31.502Z,96246.38
2023-01-19T16:13:58.528Z,96258.28
2023-01-19T16:16:26.735Z,96251.13
2023-01-19T16:18:53.819Z,96253.91
2023-01-19T16:21:20.536Z,96251.19
2023-01-19T16:23:47.120Z,96236.06
2023-01-19T16:26:25.619Z,96252.31
2023-01-19T16:28:52.276Z,96259.84
2023-01-19T16:31:18.817Z,96252.69
2023-01-19T16:33:45.537Z,96254.38
2023-01-19T16:36:29.991Z,96185.06
2023-01-19T16:39:15.933Z,96257.09
2023-01-19T16:41:43.810Z,96252.34
2023-01-19T16:44:12.554Z,96196.56
2023-01-19T16:46:41.935Z,96252.75
2023-01-19T16:49:17.330Z,96243.25
2023-01-19T16:51:44.235Z,96234.56
2023-01-19T16:54:16.216Z,96256.00
2023-01-19T16:56:43.322Z,96256.00
2023-01-19T16:59:12.803Z,96264.00
2023-01-19T17:01:40.263Z,96254.09
2023-01-19T17:04:07.512Z,96261.63
2023-01-19T17:06:34.103Z,96259.69
2023-01-19T17:09:00.712Z,96175.75
2023-01-19T17:11:31.721Z,96249.03
2023-01-19T17:14:01.199Z,96247.06
2023-01-19T17:16:29.090Z,96263.31
2023-01-19T17:19:00.746Z,96256.19
2023-01-19T17:21:28.158Z,96257.78
2023-01-19T17:23:55.804Z,96276.03
2023-01-19T17:26:28.342Z,96264.94
2023-01-19T17:28:59.818Z,96273.66
2023-01-19T17:31:26.857Z,96267.28
2023-01-19T17:33:53.645Z,96266.53
2023-01-19T17:36:23.052Z,96276.44
2023-01-19T17:38:50.582Z,96257.00
2023-01-19T17:41:21.200Z,96273.66
2023-01-19T17:43:50.435Z,96270.47
2023-01-19T17:46:19.108Z,96233.25
2023-01-19T17:48:54.796Z,96275.22
2023-01-19T17:51:23.068Z,96271.69
2023-01-19T17:53:50.384Z,96251.47
2023-01-19T17:56:18.665Z,96255.00
2023-01-19T17:58:45.412Z,96286.31
2023-01-19T18:01:13.444Z,96283.16
2023-01-19T18:03:40.782Z,96258.97
2023-01-19T18:06:08.145Z,96267.28
2023-01-19T18:08:37.988Z,96300.63
2023-01-19T18:11:04.824Z,96280.38
2023-01-19T18:13:31.723Z,96286.34
2023-01-19T18:16:00.342Z,96274.03
2023-01-19T18:18:27.560Z,96275.22
2023-01-19T18:20:58.526Z,96215.81
2023-01-19T18:23:25.288Z,96216.59
2023-01-19T18:25:58.685Z,96208.28
2023-01-19T18:28:25.496Z,96273.63
2023-01-19T18:30:52.461Z,96199.16
2023-01-19T18:33:19.485Z,96257.00
2023-01-19T18:35:47.002Z,96199.94
2023-01-19T18:38:14.401Z,96238.75
2023-01-19T18:40:41.376Z,96243.50
2023-01-19T18:43:12.243Z,96247.50
2023-01-19T18:45:42.005Z,96256.63
2023-01-19T18:48:09.903Z,96231.25
2023-01-19T18:50:37.936Z,96218.19
2023-01-19T18:53:06.388Z,96241.16
2023-01-19T18:55:33.364Z,96254.63
2023-01-19T18:58:01.200Z,96252.25
2023-01-19T19:00:28.226Z,96239.19
2023-01-19T19:02:58.138Z,96243.94
2023-01-19T19:05:29.527Z,96210.22
2023-01-19T19:07:56.464Z,96190.41
2023-01-19T19:10:24.368Z,96259.78
2023-01-19T19:12:51.326Z,96251.47
2023-01-19T19:15:19.344Z,96203.91
2023-01-19T19:17:47.216Z,96257.00
2023-01-19T19:20:14.551Z,96319.66
2023-01-19T19:22:42.366Z,96219.78
2023-01-19T19:25:10.611Z,96271.28
2023-01-19T19:27:37.552Z,96259.38
2023-01-19T19:30:07.128Z,96255.41
2023-01-19T19:32:35.210Z,96253.84
2023-01-19T19:35:04.111Z,96254.22
2023-01-19T19:37:32.792Z,96261.75
2023-01-19T19:40:01.458Z,96262.53
2023-01-19T19:42:34.312Z,96221.31
2023-01-19T19:45:05.362Z,96251.41
2023-01-19T19:47:33.562Z,96244.69
2023-01-19T19:50:01.757Z,96258.53
2023-01-19T19:52:30.059Z,96274.44
2023-01-19T19:54:58.433Z,96244.31
2023-01-19T19:57:27.379Z,96241.88
2023-01-19T19:59:56.249Z,96251.41
2023-01-19T20:02:24.809Z,96245.09
2023-01-19T20:04:53.502Z,96200.31
2023-01-19T20:07:20.720Z,96249.03
2023-01-19T20:09:49.176Z,96254.59
2023-01-19T20:12:17.861Z,96218.53
2023-01-19T20:14:46.385Z,96241.53
2023-01-19T20:17:15.050Z,96247.47
2023-01-19T20:19:43.673Z,96243.53
2023-01-19T20:22:10.782Z,96234.75
2023-01-19T20:24:38.893Z,96193.56
2023-01-19T20:27:06.867Z,96170.97
2023-01-19T20:29:33.788Z,96236.28
2023-01-19T20:32:01.391Z,96237.09
2023-01-19T20:34:33.309Z,96242.63
2023-01-19T20:37:02.343Z,96238.69
2023-01-19T20:39:33.946Z,96205.00
2023-01-19T20:42:01.891Z,96115.94
2023-01-19T20:44:32.033Z,96210.88
2023-01-19T20:46:59.104Z,96243.41
2023-01-19T20:49:26.328Z,96238.25
2023-01-19T20:51:54.353Z,96215.72
2023-01-19T20:54:27.139Z,96244.19
2023-01-19T20:56:54.624Z,96254.50
2023-01-19T20:59:21.826Z,96248.94
2023-01-19T21:01:49.475Z,96256.88
2023-01-19T21:04:17.847Z,96195.13
2023-01-19T21:06:45.101Z,96146.81
2023-01-19T21:09:11.922Z,96246.16
2023-01-19T21:11:39.645Z,96225.94
2023-01-19T21:14:07.590Z,96241.44
2023-01-19T21:16:35.712Z,96224.41
2023-01-19T21:19:03.224Z,96241.03
2023-01-19T21:21:31.649Z,96245.78
2023-01-19T21:24:00.675Z,96245.00
2023-01-19T21:26:29.945Z,96239.88
2023-01-19T21:29:01.060Z,96245.03
2023-01-19T21:31:28.490Z,96230.00
2023-01-19T21:33:56.372Z,96170.22
2023-01-19T21:36:23.960Z,96244.66
2023-01-19T21:38:52.282Z,96235.53
2023-01-19T21:41:19.202Z,96241.06
2023-01-19T21:43:46.315Z,96235.16
2023-01-19T21:46:29.011Z,96223.66
2023-01-19T21:48:57.599Z,96227.59
2023-01-19T21:51:24.261Z,96169.78
2023-01-19T21:53:56.117Z,96127.03
2023-01-19T21:56:23.052Z,96223.22
2023-01-19T21:58:49.678Z,96234.69
2023-01-19T22:01:16.357Z,96225.94
2023-01-19T22:03:43.132Z,96231.50
2023-01-19T22:06:12.966Z,96180.78
2023-01-19T22:08:40.691Z,96226.66
2023-01-19T22:11:09.800Z,96209.31
2023-01-19T22:13:38.676Z,96213.25
2023-01-19T22:16:10.955Z,96209.66
2023-01-19T22:18:39.371Z,96225.16
2023-01-19T22:21:10.173Z,96210.91
2023-01-19T22:23:37.538Z,96204.56
2023-01-19T22:26:05.166Z,96203.38
2023-01-19T22:28:32.114Z,96204.56
2023-01-19T22:31:10.536Z,96198.25
2023-01-19T22:33:37.262Z,96140.47
2023-01-19T22:36:36.791Z,96187.97
2023-01-19T22:39:08.826Z,96140.47
2023-01-19T22:41:44.169Z,96161.03
2023-01-19T22:44:22.309Z,96175.28
2023-01-19T22:46:50.469Z,96161.81
2023-01-19T22:49:18.271Z,96172.91
2023-01-19T22:51:45.527Z,96163.44
2023-01-19T22:54:12.856Z,96133.34
2023-01-19T22:56:40.539Z,96141.22
2023-01-19T22:59:07.383Z,96147.63
2023-01-19T23:01:39.873Z,96154.75
2023-01-19T23:04:07.774Z,96140.47
2023-01-19T23:06:36.727Z,96138.84
2023-01-19T23:09:10.591Z,96142.84
2023-01-19T23:11:40.252Z,96013.84
2023-01-19T23:14:08.085Z,96144.44
2023-01-19T23:16:36.275Z,96134.91
2023-01-19T23:19:03.576Z,96130.94
2023-01-19T23:21:31.512Z,96123.75
2023-01-19T23:24:02.760Z,96139.59
2023-01-19T23:26:30.893Z,96130.13
2023-01-19T23:29:00.301Z,96121.81
2023-01-19T23:31:32.153Z,96108.31
2023-01-19T23:34:01.554Z,96101.59
2023-01-19T23:36:30.908Z,96072.41
2023-01-19T23:39:00.637Z,96111.19
2023-01-19T23:41:29.723Z,96080.28
2023-01-19T23:43:56.662Z,96115.94
2023-01-19T23:46:23.320Z,96120.72
2023-01-19T23:48:50.321Z,96054.56
2023-01-19T23:51:20.462Z,96053.00
2023-01-19T23:53:47.814Z,96091.38
2023-01-19T23:56:21.800Z,96088.16
2023-01-19T23:58:53.393Z,96100.84
